Latest Weather Observations for Pirlangimpi

IDD60901

Issued at 3:35 pm CST Saturday 30 August 2014 (issued every 10 minutes, with the page automatically refreshed every 10 minutes)

About weather observations | Map of Darwin area stations | Latest observations for Darwin area | Other Formats
Station Details ID: 014142 Name: PIRLANGIMPI AIRPORT Lat: -11.40 Lon: 130.42 Height: 18.3 m
Data from the previous 72 hours. | See also: Recent months at Pirlangimpi
Date/Time
CST
Tmp

°C
App
Tmp
°C
Dew
Point
°C
Rel
Hum
%
Delta-T

°C
Wind Press
QNH
hPa
Press
MSL
hPa
Rain
since
9 am
mm
Dir
 
Spd
km/h
Gust
km/h
Spd
kts
Gust
kts
30/03:30pm 33.8 32.3 9.1 22 14.0 E 7 17 4 9 1010.8 1010.7 0.0
30/03:00pm 34.1 33.2 11.3 25 13.4 ENE 7 15 4 8 1010.9 1010.8 0.0
30/02:30pm 32.2 30.6 13.9 33 11.1 S 15 20 8 11 1011.2 1011.1 0.0
30/02:00pm 31.9 31.1 14.1 34 10.8 S 11 19 6 10 1011.6 1011.5 0.0
30/01:30pm 31.4 29.1 11.7 29 11.5 SW 15 28 8 15 1012.1 1012.0 0.0
30/01:00pm 31.6 30.3 11.4 29 11.8 SW 9 20 5 11 1012.7 1012.6 0.0
30/12:30pm 32.1 31.3 11.8 29 11.9 S 7 15 4 8 1013.1 1013.0 0.0
30/12:00pm 32.3 31.1 11.5 28 12.2 ESE 9 15 5 8 1013.9 1013.8 0.0
30/11:30am 30.9 29.2 11.3 30 11.4 ESE 11 19 6 10 1014.6 1014.5 0.0
30/11:00am 30.1 27.7 10.1 29 11.3 ESE 13 22 7 12 1015.3 1015.2 0.0
30/10:30am 29.9 29.3 12.3 33 10.3 E 7 17 4 9 1015.6 1015.5 0.0
30/10:00am 27.8 28.9 17.0 51 6.8 S 7 11 4 6 1015.8 1015.7 0.0
30/09:30am 25.8 27.3 17.7 61 5.1 S 6 9 3 5 1015.7 1015.6 0.0
30/09:00am 24.0 26.2 18.4 71 3.5 SSE 4 4 2 2 1015.7 1015.6 0.0
30/08:30am 20.7 23.0 18.6 88 1.3 SE 4 6 2 3 1015.6 1015.5 0.0
30/08:00am 19.0 21.1 18.2 95 0.5 SSE 4 6 2 3 1015.4 1015.3 0.0
30/07:30am 17.5 19.1 17.0 97 0.3 SE 4 6 2 3 1015.1 1015.0 0.0
30/07:00am 15.7 16.5 14.9 95 0.5 E 4 6 2 3 1015.0 1014.9 0.0
30/06:30am 15.6 16.3 14.5 93 0.6 ENE 4 4 2 2 1014.7 1014.6 0.0
30/06:00am 16.8 18.1 16.2 96 0.4 ESE 4 4 2 2 1014.4 1014.3 0.0
30/05:30am 15.9 16.7 14.8 93 0.6 SSE 4 6 2 3 1014.2 1014.1 0.0
30/05:00am 16.3 18.0 15.3 94 0.6 CALM 0 4 0 2 1014.0 1013.9 0.0
30/04:30am 16.4 18.1 15.3 93 0.6 CALM 0 0 0 0 1013.9 1013.8 0.0
30/04:00am 16.5 18.1 15.0 91 0.9 CALM 0 0 0 0 1013.9 1013.8 0.0
30/03:30am 17.2 18.9 16.1 93 0.7 NE 2 4 1 2 1013.7 1013.6 0.0
30/03:00am 17.6 19.7 16.3 92 0.8 CALM 0 0 0 0 1013.8 1013.7 0.0
30/02:30am 18.0 20.4 16.9 93 0.7 CALM 0 0 0 0 1013.9 1013.8 0.0
30/02:00am 18.4 21.0 17.6 95 0.5 CALM 0 2 0 1 1014.1 1014.0 0.0
30/01:30am 17.8 20.0 16.5 92 0.8 CALM 0 0 0 0 1014.4 1014.3 0.0
30/01:00am 17.4 19.3 15.7 90 1.0 CALM 0 0 0 0 1014.6 1014.5 0.0
30/12:30am 17.5 19.3 15.5 88 1.2 CALM 0 0 0 0 1014.7 1014.6 0.0
30/12:00am 17.7 19.5 15.5 87 1.3 ENE 0 0 0 0 1014.5 1014.4 0.0
 
Date/Time
CST
Tmp

°C
App
Tmp
°C
Dew
Point
°C
Rel
Hum
%
Delta-T

°C
Wind Press
QNH
hPa
Press
MSL
hPa
Rain
since
9 am
mm
Dir
 
Spd
km/h
Gust
km/h
Spd
kts
Gust
kts
29/11:30pm 17.7 19.3 14.8 83 1.7 CALM 0 0 0 0 1014.6 1014.5 0.0
29/11:00pm 18.1 19.7 14.8 81 1.9 CALM 0 0 0 0 1014.5 1014.4 0.0
29/10:30pm 18.6 20.2 14.9 79 2.2 CALM 0 0 0 0 1014.4 1014.3 0.0
29/10:00pm 19.3 21.2 15.8 80 2.1 CALM 0 0 0 0 1014.4 1014.3 0.0
29/09:30pm 19.6 21.4 15.5 77 2.4 CALM 0 0 0 0 1014.2 1014.1 0.0
29/09:00pm 20.3 22.0 15.3 73 3.0 CALM 0 0 0 0 1014.0 1013.9 0.0
29/08:30pm 21.0 22.3 15.1 69 3.5 NE 2 4 1 2 1013.7 1013.6 0.0
29/08:00pm 22.2 23.6 15.3 65 4.1 NE 2 4 1 2 1013.5 1013.4 0.0
29/07:30pm 22.8 24.4 16.8 69 3.7 NE 4 9 2 5 1013.2 1013.1 0.0
29/07:00pm 24.0 26.0 17.0 65 4.3 WNW 2 4 1 2 1012.8 1012.7 0.0
29/06:30pm 25.6 27.6 17.0 59 5.3 WNW 2 4 1 2 1012.6 1012.5 0.0
29/06:00pm 26.8 28.6 17.3 56 6.0 NW 4 7 2 4 1012.4 1012.3 0.0
29/05:30pm 28.4 29.8 17.9 53 6.7 NW 7 13 4 7 1012.2 1012.1 0.0
29/05:00pm 29.4 31.0 18.2 51 7.2 NW 7 13 4 7 1012.2 1012.1 0.0
29/04:30pm 29.9 31.0 18.0 48 7.6 WNW 9 13 5 7 1012.2 1012.1 0.0
29/04:00pm 30.5 30.8 16.9 44 8.6 NW 11 20 6 11 1012.3 1012.2 0.0
29/03:30pm 32.1 29.5 6.3 20 13.9 S 9 15 5 8 1012.3 1012.2 0.0
29/03:00pm 32.2 29.7 8.4 23 13.3 SSW 11 17 6 9 1012.3 1012.2 0.0
29/02:30pm 33.1 31.1 7.1 20 14.3 E 7 17 4 9 1012.4 1012.3 0.0
29/02:00pm 32.9 31.1 7.0 20 14.2 ENE 6 19 3 10 1012.6 1012.5 0.0
29/01:30pm 32.2 28.9 6.4 20 13.9 SE 13 24 7 13 1012.9 1012.8 0.0
29/01:00pm 32.8 30.5 7.6 21 13.9 SE 9 19 5 10 1013.4 1013.3 0.0
29/12:30pm 32.5 30.1 8.7 23 13.3 E 11 22 6 12 1013.9 1013.8 0.0
29/12:00pm 31.7 28.6 8.7 24 12.8 SE 15 28 8 15 1014.3 1014.2 0.0
29/11:30am 30.8 26.9 9.6 27 12.0 E 20 26 11 14 1014.7 1014.6 0.0
29/11:00am 30.1 28.4 12.5 34 10.4 ESE 13 22 7 12 1015.1 1015.0 0.0
29/10:30am 29.2 27.9 13.8 39 9.2 SE 13 17 7 9 1015.5 1015.4 0.0
29/10:00am 27.0 28.4 17.8 57 5.8 S 7 11 4 6 1015.7 1015.6 0.0
29/09:30am 25.6 27.0 17.3 60 5.2 SSE 6 9 3 5 1015.7 1015.6 0.0
29/09:00am 24.3 26.1 17.5 66 4.2 SE 4 7 2 4 1015.8 1015.7 0.0
29/08:30am 21.4 23.3 17.6 79 2.3 SSE 4 6 2 3 1015.8 1015.7 0.0
29/08:00am 19.3 20.5 16.0 81 2.0 S 4 6 2 3 1015.5 1015.4 0.0
29/07:30am 17.4 18.8 15.4 88 1.2 SSE 2 4 1 2 1015.2 1015.1 0.0
29/07:00am 17.0 17.9 15.0 88 1.2 SSE 4 4 2 2 1014.8 1014.7 0.0
29/06:30am 16.7 17.3 14.3 86 1.4 ESE 4 6 2 3 1014.5 1014.4 0.0
29/06:00am 16.8 17.3 14.1 84 1.5 SE 4 4 2 2 1014.3 1014.2 0.0
29/05:30am 17.0 17.7 14.5 85 1.4 ESE 4 7 2 4 1014.0 1013.9 0.0
29/05:00am 16.9 17.7 14.7 87 1.3 E 4 4 2 2 1013.9 1013.8 0.0
29/04:30am 17.2 18.8 14.8 86 1.4 CALM 0 2 0 1 1013.8 1013.7 0.0
29/04:00am 17.7 19.0 15.1 85 1.5 S 2 4 1 2 1013.7 1013.6 0.0
29/03:30am 18.6 19.8 16.0 85 1.5 SSE 4 4 2 2 1013.7 1013.6 0.0
29/03:00am 18.8 19.9 16.6 87 1.3 SE 6 7 3 4 1013.7 1013.6 0.0
29/02:30am 17.8 19.0 16.0 89 1.1 SE 4 6 2 3 1013.7 1013.6 0.0
29/02:00am 18.2 19.4 15.8 86 1.4 SE 4 6 2 3 1013.8 1013.7 0.0
29/01:30am 18.9 20.5 16.9 88 1.2 SSE 4 6 2 3 1013.9 1013.8 0.0
29/01:00am 18.2 20.0 15.6 85 1.5 CALM 0 0 0 0 1014.0 1013.9 0.0
29/12:30am 18.7 20.5 15.6 82 1.8 CALM 0 0 0 0 1014.0 1013.9 0.0
29/12:00am 18.9 20.9 16.0 83 1.7 CALM 0 2 0 1 1014.2 1014.1 0.0
 
Date/Time
CST
Tmp

°C
App
Tmp
°C
Dew
Point
°C
Rel
Hum
%
Delta-T

°C
Wind Press
QNH
hPa
Press
MSL
hPa
Rain
since
9 am
mm
Dir
 
Spd
km/h
Gust
km/h
Spd
kts
Gust
kts
28/11:30pm 18.8 20.3 14.7 77 2.4 CALM 0 0 0 0 1014.2 1014.1 0.0
28/11:00pm 18.3 19.6 14.0 76 2.5 CALM 0 4 0 2 1014.2 1014.1 0.0
28/10:30pm 19.0 20.1 13.6 71 3.1 CALM 0 0 0 0 1014.1 1014.0 0.0
28/10:00pm 20.1 21.4 14.2 69 3.4 CALM 0 0 0 0 1014.1 1014.0 0.0
28/09:30pm 21.3 22.6 14.2 64 4.1 CALM 0 0 0 0 1014.1 1014.0 0.0
28/09:00pm 22.1 22.7 14.2 61 4.6 NE 4 9 2 5 1013.9 1013.8 0.0
28/08:30pm 21.7 21.6 13.3 59 4.8 NE 6 9 3 5 1013.7 1013.6 0.0
28/08:00pm 21.8 21.6 12.9 57 5.1 NE 6 7 3 4 1013.5 1013.4 0.0
28/07:30pm 22.4 21.9 12.6 54 5.6 ENE 7 11 4 6 1013.3 1013.2 0.0
28/07:00pm 23.7 23.1 12.4 49 6.5 ENE 7 11 4 6 1013.1 1013.0 0.0
28/06:30pm 25.5 24.2 12.4 44 7.5 NE 11 20 6 11 1012.8 1012.7 0.0
28/06:00pm 27.0 24.6 11.5 38 8.9 ENE 15 22 8 12 1012.4 1012.3 0.0
28/05:30pm 28.8 25.8 10.5 32 10.4 ENE 17 26 9 14 1012.1 1012.0 0.0
28/05:00pm 30.4 27.8 9.3 27 11.8 ENE 13 19 7 10 1011.9 1011.8 0.0
28/04:30pm 30.2 26.7 7.4 24 12.4 E 15 22 8 12 1011.6 1011.5 0.0
28/04:00pm 32.8 29.1 6.2 19 14.3 ENE 15 24 8 13 1011.3 1011.2 0.0
28/03:30pm 33.2 28.7 4.0 16 15.2 E 17 24 9 13 1011.3 1011.2 0.0
28/03:00pm 33.0 27.5 0.9 13 15.9 E 19 30 10 16 1011.4 1011.3 0.0
28/02:30pm 32.4 27.9 -0.6 12 15.9 E 13 22 7 12 1011.8 1011.7 0.0
28/02:00pm 32.9 28.0 1.9 14 15.6 ESE 17 26 9 14 1012.2 1012.1 0.0
28/01:30pm 34.4 31.0 4.0 15 16.0 E 11 20 6 11 1012.4 1012.3 0.0
28/01:00pm 32.6 28.7 3.5 16 15.0 ESE 13 22 7 12 1012.8 1012.7 0.0
28/12:30pm 31.4 26.1 1.7 15 14.7 ESE 19 28 10 15 1013.6 1013.5 0.0
28/12:00pm 31.4 27.1 3.4 17 14.3 ESE 15 30 8 16 1014.0 1013.9 0.0
28/11:30am 30.3 25.5 4.9 20 13.2 ESE 19 24 10 13 1014.4 1014.3 0.0
28/11:00am 29.8 25.5 5.1 21 12.9 ESE 17 30 9 16 1014.8 1014.7 0.0
28/10:30am 28.2 24.6 9.9 32 10.2 E 19 26 10 14 1015.0 1014.9 0.0
28/10:00am 28.1 26.6 13.2 39 8.8 ESE 13 20 7 11 1015.3 1015.2 0.0
28/09:30am 26.3 26.5 15.7 52 6.5 SE 9 20 5 11 1015.2 1015.1 0.0
28/09:00am 23.5 24.9 17.3 68 3.8 SSE 6 9 3 5 1015.2 1015.1 0.0
28/08:30am 21.1 22.9 17.3 79 2.3 SSE 4 6 2 3 1015.1 1015.0 0.0
28/08:00am 19.2 20.7 16.6 85 1.6 SE 4 6 2 3 1014.8 1014.7 0.0
28/07:30am 16.5 17.5 14.2 86 1.3 NE 2 4 1 2 1014.6 1014.5 0.0
28/07:00am 16.1 17.0 13.0 82 1.7 CALM 0 0 0 0 1014.2 1014.1 0.0
28/06:30am 16.6 17.6 13.1 80 2.0 CALM 0 0 0 0 1014.0 1013.9 0.0
28/06:00am 17.1 17.5 12.6 75 2.5 SE 2 2 1 1 1013.8 1013.7 0.0
28/05:30am 18.1 18.3 13.2 73 2.8 SSE 4 6 2 3 1013.6 1013.5 0.0
28/05:00am 18.6 18.6 13.5 72 2.9 SSE 6 7 3 4 1013.6 1013.5 0.0
28/04:30am 18.1 18.4 13.4 74 2.7 SSE 4 4 2 2 1013.4 1013.3 0.0
28/04:00am 19.6 20.3 14.4 72 3.0 SE 4 7 2 4 1013.3 1013.2 0.0
28/03:30am 19.7 20.2 15.1 75 2.7 SE 6 7 3 4 1013.3 1013.2 0.0
28/03:00am 19.7 19.9 14.1 70 3.2 SE 6 7 3 4 1013.3 1013.2 0.0
28/02:30am 19.9 20.0 14.0 69 3.4 SE 6 7 3 4 1013.3 1013.2 0.0
28/02:00am 20.2 20.8 14.3 69 3.4 SSE 4 6 2 3 1013.5 1013.4 0.0
28/01:30am 20.4 21.1 14.5 69 3.4 SSE 4 6 2 3 1013.7 1013.6 0.0
28/01:00am 21.6 22.3 15.7 69 3.5 S 6 9 3 5 1013.9 1013.8 0.0
28/12:30am 22.6 23.3 16.2 67 3.9 SE 7 11 4 6 1014.0 1013.9 0.0
28/12:00am 22.2 21.7 14.8 63 4.4 ENE 11 15 6 8 1013.8 1013.7 0.0
 
Date/Time
CST
Tmp

°C
App
Tmp
°C
Dew
Point
°C
Rel
Hum
%
Delta-T

°C
Wind Press
QNH
hPa
Press
MSL
hPa
Rain
since
9 am
mm
Dir
 
Spd
km/h
Gust
km/h
Spd
kts
Gust
kts
27/11:30pm 22.6 21.9 14.2 59 4.9 NE 11 15 6 8 1013.8 1013.7 0.0
27/11:00pm 22.9 21.5 13.4 55 5.5 ENE 13 19 7 10 1013.8 1013.7 0.0
27/10:30pm 23.0 21.3 13.5 55 5.5 ENE 15 20 8 11 1013.7 1013.6 0.0
27/10:00pm 22.6 22.1 13.9 58 5.1 NE 9 19 5 10 1013.6 1013.5 0.0
27/09:30pm 22.7 22.1 14.5 60 4.8 ENE 11 17 6 9 1013.5 1013.4 0.0
27/09:00pm 22.7 22.5 14.8 61 4.7 ENE 9 17 5 9 1013.2 1013.1 0.0
27/08:30pm 22.8 23.0 14.6 60 4.8 NE 7 11 4 6 1013.1 1013.0 0.0
27/08:00pm 22.5 22.7 14.1 59 4.9 NE 6 9 3 5 1012.8 1012.7 0.0
27/07:30pm 23.4 23.8 13.6 54 5.7 NE 4 6 2 3 1012.7 1012.6 0.0
27/07:00pm 24.7 24.5 13.0 48 6.8 NNE 6 9 3 5 1012.3 1012.2 0.0
27/06:30pm 26.2 25.5 11.9 41 8.2 NNE 7 13 4 7 1012.0 1011.9 0.0
27/06:00pm 27.7 26.1 11.7 37 9.2 NE 11 20 6 11 1011.7 1011.6 0.0
27/05:30pm 31.1 27.5 4.8 19 13.7 E 13 26 7 14 1011.6 1011.5 0.0
27/05:00pm 31.1 26.9 4.0 18 14.0 E 15 24 8 13 1011.2 1011.1 0.0
27/04:30pm 31.8 27.6 3.8 17 14.4 SE 15 24 8 13 1011.0 1010.9 0.0
27/04:00pm 31.4 26.4 3.4 17 14.3 E 19 32 10 17 1011.1 1011.0 0.0

Latest Capital City Observations: Canberra | Sydney | Melbourne | Brisbane | Adelaide | Perth | Hobart | Darwin

Other Formats:

Comma delimited format used in spreadsheet applications
http://www.bom.gov.au/fwo/IDD60901/IDD60901.94119.axf

JavaScript Object Notation format (JSON) in row-major order
http://www.bom.gov.au/fwo/IDD60901/IDD60901.94119.json